Argyle, Illinois
Current Conditions -  °F | °C
As of 5:54 AM on Sunday 23 Nov 2014 (Local Time) from KRFD Reporting Station
Haze Haze  
Wind Chill:   Ceiling: 2200
Heat Index:   Visibility: 6mi
Dew Point:   Wind: 9mph
Humidity: 93%   Direction: 180°S
Pressure: 29.72"   Gusts: NA
Location:  42.3911°N, 88.9094°W
Report Text: KRFD 231154Z 18008KT 6SM BR SCT008 BKN022 OVC027 09/08 A2972 RMK AO2 SLP066 60000 70001 T00890078 10100 20089 56014
Loading
Personal Weather Stations






























Interactive Weather Map New forecast layout! Learn more

10-Day Weather Forecast

Advertisements
Track Severe Weather on mobile